Time;durP1;ratioP1;P1;durP2;ratioP2;P2;SDS_P1;SDS_P2;PMS_P1;PMS_P2;Temp;Humidity;BMP_temperature;BMP_pressure;BME280_temperature;BME280_humidity;BME280_pressure;Samples;Min_cycle;Max_cycle;Signal;HPM_P1;HPM_P2
2022/04/13 00:01:24;;;;;;;6.87;3.53;;;;;;;;;;5007655;28;20196;-56
2022/04/13 00:03:50;;;;;;;6.47;3.00;;;;;;;;;;5008106;28;20592;-57
2022/04/13 00:06:16;;;;;;;9.53;3.90;;;;;;;;;;5012809;28;20730;-57
2022/04/13 00:08:44;;;;;;;6.87;3.17;;;;;;;;;;5010020;28;20279;-58
2022/04/13 00:11:10;;;;;;;6.40;3.10;;;;;;;;;;5005638;28;20654;-57
2022/04/13 00:13:36;;;;;;;4.60;2.77;;;;;;;;;;5010980;28;20196;-57
2022/04/13 00:16:02;;;;;;;7.77;2.90;;;;;;;;;;5006147;28;20197;-56
2022/04/13 00:18:28;;;;;;;5.53;2.90;;;;;;;;;;5007101;28;20209;-57
2022/04/13 00:20:53;;;;;;;7.00;3.30;;;;;;;;;;4999165;28;20200;-57
2022/04/13 00:23:19;;;;;;;6.70;2.83;;;;;;;;;;5001859;28;20238;-57
2022/04/13 00:25:47;;;;;;;7.07;2.83;;;;;;;;;;5005344;28;20276;-57
2022/04/13 00:28:14;;;;;;;4.93;2.87;;;;;;;;;;5004551;28;20560;-57
2022/04/13 00:30:40;;;;;;;5.53;2.83;;;;;;;;;;5003732;28;20228;-57
2022/04/13 00:33:07;;;;;;;5.83;2.83;;;;;;;;;;5008595;28;20196;-57
2022/04/13 00:35:33;;;;;;;7.20;2.87;;;;;;;;;;5008536;28;20193;-57
2022/04/13 00:37:59;;;;;;;5.67;2.30;;;;;;;;;;5000544;28;20223;-56
2022/04/13 00:40:25;;;;;;;4.37;2.93;;;;;;;;;;5003152;28;20276;-57
2022/04/13 00:42:51;;;;;;;8.07;2.97;;;;;;;;;;5000883;28;20194;-57
2022/04/13 00:45:16;;;;;;;4.67;2.83;;;;;;;;;;4999784;28;20189;-57
2022/04/13 00:47:43;;;;;;;6.07;2.60;;;;;;;;;;5006721;28;20189;-57
2022/04/13 00:50:09;;;;;;;5.40;2.60;;;;;;;;;;5005120;28;20193;-57
2022/04/13 00:52:36;;;;;;;5.53;2.97;;;;;;;;;;5007799;28;20559;-57
2022/04/13 00:55:03;;;;;;;7.30;2.90;;;;;;;;;;5007179;28;20192;-57
2022/04/13 00:57:29;;;;;;;5.73;3.30;;;;;;;;;;5005875;28;20347;-57
2022/04/13 00:59:56;;;;;;;6.73;3.00;;;;;;;;;;5012718;28;20184;-57
2022/04/13 01:02:22;;;;;;;5.30;2.90;;;;;;;;;;5008153;28;20194;-57
2022/04/13 01:04:48;;;;;;;4.27;2.83;;;;;;;;;;5005196;28;20193;-58
2022/04/13 01:07:14;;;;;;;4.70;2.63;;;;;;;;;;5005204;28;20308;-56
2022/04/13 01:09:40;;;;;;;6.70;3.43;;;;;;;;;;4999713;28;20192;-58
2022/04/13 01:12:06;;;;;;;5.50;3.00;;;;;;;;;;5001543;28;20197;-58
2022/04/13 01:14:32;;;;;;;8.43;3.23;;;;;;;;;;5003834;28;20205;-57
2022/04/13 01:16:59;;;;;;;6.93;3.03;;;;;;;;;;5001111;28;20990;-57
2022/04/13 01:19:26;;;;;;;5.10;2.60;;;;;;;;;;5011332;28;20193;-57
2022/04/13 01:21:53;;;;;;;5.07;3.07;;;;;;;;;;5007636;28;20185;-56
2022/04/13 01:24:19;;;;;;;4.23;2.57;;;;;;;;;;5000519;28;20202;-57
2022/04/13 01:26:45;;;;;;;5.30;3.00;;;;;;;;;;5008184;28;20201;-57
2022/04/13 01:29:12;;;;;;;4.60;2.80;;;;;;;;;;5004832;28;20253;-56
2022/04/13 01:31:38;;;;;;;7.40;2.70;;;;;;;;;;5000745;28;20618;-57
2022/04/13 01:34:04;;;;;;;5.47;2.93;;;;;;;;;;5001552;28;20216;-56
2022/04/13 01:36:30;;;;;;;7.70;3.00;;;;;;;;;;5003795;28;20197;-57
2022/04/13 01:38:56;;;;;;;5.20;3.50;;;;;;;;;;5001836;28;20292;-57
2022/04/13 01:41:22;;;;;;;7.93;3.07;;;;;;;;;;5003911;28;20255;-57
2022/04/13 01:43:48;;;;;;;6.10;2.90;;;;;;;;;;5000785;28;20190;-58
2022/04/13 01:46:14;;;;;;;5.40;3.00;;;;;;;;;;4998705;28;20558;-58
2022/04/13 01:48:40;;;;;;;3.47;2.77;;;;;;;;;;5005556;28;20726;-57
2022/04/13 01:51:06;;;;;;;5.60;2.83;;;;;;;;;;5001634;28;20483;-57
2022/04/13 01:53:32;;;;;;;5.90;2.87;;;;;;;;;;5001133;28;20197;-56
2022/04/13 01:55:58;;;;;;;8.83;3.17;;;;;;;;;;5006787;28;20212;-57
2022/04/13 01:58:24;;;;;;;6.10;3.00;;;;;;;;;;4997031;28;20205;-57
2022/04/13 02:00:56;;;;;;;7.27;3.87;;;;;;;;;;4998867;28;20200;-57
2022/04/13 02:03:23;;;;;;;5.27;2.90;;;;;;;;;;5006646;28;20177;-56
2022/04/13 02:05:52;;;;;;;3.77;2.90;;;;;;;;;;5005780;28;20468;-57
2022/04/13 02:08:18;;;;;;;3.93;2.83;;;;;;;;;;5007219;28;20205;-57
2022/04/13 02:10:44;;;;;;;6.10;2.90;;;;;;;;;;5002018;28;20576;-56
2022/04/13 02:13:10;;;;;;;3.57;2.67;;;;;;;;;;4996996;28;20197;-57
2022/04/13 02:15:36;;;;;;;4.77;3.43;;;;;;;;;;4998034;28;20228;-56
2022/04/13 02:18:02;;;;;;;5.43;3.30;;;;;;;;;;4989884;28;20213;-58
2022/04/13 02:20:28;;;;;;;6.67;3.00;;;;;;;;;;4986503;28;20193;-57
2022/04/13 02:22:54;;;;;;;7.83;3.50;;;;;;;;;;4993117;28;20279;-57
2022/04/13 02:25:20;;;;;;;7.20;2.90;;;;;;;;;;4993765;28;20291;-57
2022/04/13 02:27:46;;;;;;;5.93;3.17;;;;;;;;;;4993371;28;20986;-57
2022/04/13 02:30:12;;;;;;;4.63;2.80;;;;;;;;;;4992758;28;20246;-56
2022/04/13 02:32:39;;;;;;;3.57;2.73;;;;;;;;;;5003524;28;20193;-57
2022/04/13 02:35:05;;;;;;;4.93;2.80;;;;;;;;;;5003351;28;20270;-57
2022/04/13 02:37:31;;;;;;;4.97;2.80;;;;;;;;;;5000795;28;20852;-57
2022/04/13 02:39:57;;;;;;;5.90;2.97;;;;;;;;;;5004554;28;20201;-58
2022/04/13 02:42:23;;;;;;;7.13;3.27;;;;;;;;;;4996984;28;20193;-57
2022/04/13 02:44:49;;;;;;;6.90;3.10;;;;;;;;;;4995282;28;20180;-56
2022/04/13 02:47:15;;;;;;;6.63;3.23;;;;;;;;;;5001111;28;20275;-57
2022/04/13 02:49:43;;;;;;;5.97;3.13;;;;;;;;;;5003738;28;20543;-58
2022/04/13 02:52:08;;;;;;;5.67;3.00;;;;;;;;;;5001234;28;20194;-57
2022/04/13 02:54:34;;;;;;;6.90;3.40;;;;;;;;;;5004024;28;20233;-57
2022/04/13 02:57:01;;;;;;;6.07;3.70;;;;;;;;;;4997412;28;20201;-56
2022/04/13 02:59:27;;;;;;;5.47;3.53;;;;;;;;;;5001838;28;20186;-58
2022/04/13 03:01:53;;;;;;;6.13;3.63;;;;;;;;;;4997029;28;20181;-57
2022/04/13 03:04:19;;;;;;;7.40;3.40;;;;;;;;;;4999651;28;20566;-57
2022/04/13 03:06:45;;;;;;;8.60;3.50;;;;;;;;;;4998300;28;21468;-57
2022/04/13 03:09:11;;;;;;;6.27;3.70;;;;;;;;;;5003395;28;20216;-56
2022/04/13 03:11:38;;;;;;;5.70;2.87;;;;;;;;;;5000612;28;20703;-57
2022/04/13 03:14:04;;;;;;;5.80;2.90;;;;;;;;;;5002202;28;20189;-57
2022/04/13 03:16:30;;;;;;;4.87;3.00;;;;;;;;;;5006018;28;20193;-58
2022/04/13 03:18:56;;;;;;;5.87;3.07;;;;;;;;;;4994807;28;20208;-57
2022/04/13 03:21:22;;;;;;;6.23;2.57;;;;;;;;;;5001732;28;20745;-58
2022/04/13 03:23:48;;;;;;;8.03;2.90;;;;;;;;;;4999858;28;20186;-57
2022/04/13 03:26:14;;;;;;;4.57;3.10;;;;;;;;;;4999474;28;20196;-57
2022/04/13 03:28:40;;;;;;;6.50;3.00;;;;;;;;;;4994933;28;20228;-57
2022/04/13 03:31:06;;;;;;;5.33;3.13;;;;;;;;;;5005500;28;20204;-58
2022/04/13 03:33:32;;;;;;;7.57;3.27;;;;;;;;;;5001965;28;20189;-56
2022/04/13 03:35:58;;;;;;;7.07;3.23;;;;;;;;;;5008057;28;20861;-58
2022/04/13 03:38:24;;;;;;;5.70;3.20;;;;;;;;;;4999277;28;20248;-57
2022/04/13 03:40:50;;;;;;;8.87;3.50;;;;;;;;;;5001774;28;20633;-57
2022/04/13 03:43:15;;;;;;;8.53;3.10;;;;;;;;;;5000223;28;20181;-57
2022/04/13 03:45:41;;;;;;;4.57;3.07;;;;;;;;;;4999410;28;20203;-57
2022/04/13 03:48:07;;;;;;;7.10;3.33;;;;;;;;;;5008288;28;20280;-56
2022/04/13 03:50:34;;;;;;;5.17;2.90;;;;;;;;;;5007287;28;20201;-58
2022/04/13 03:53:00;;;;;;;6.83;3.20;;;;;;;;;;5005752;28;20654;-57
2022/04/13 03:55:26;;;;;;;4.87;3.00;;;;;;;;;;5004059;28;20205;-57
2022/04/13 03:57:52;;;;;;;8.90;3.27;;;;;;;;;;5002080;28;20266;-57
2022/04/13 04:00:18;;;;;;;5.57;2.90;;;;;;;;;;5003969;28;20610;-57
2022/04/13 04:02:44;;;;;;;7.10;3.13;;;;;;;;;;4996430;28;21249;-57
2022/04/13 04:05:11;;;;;;;6.83;2.93;;;;;;;;;;5001265;28;20260;-57
2022/04/13 04:07:37;;;;;;;6.20;2.80;;;;;;;;;;5003110;28;20222;-57
2022/04/13 04:10:03;;;;;;;10.03;3.37;;;;;;;;;;5005252;28;20247;-57
2022/04/13 04:12:29;;;;;;;6.20;2.97;;;;;;;;;;5005067;28;20204;-58
2022/04/13 04:15:00;;;;;;;6.27;3.60;;;;;;;;;;5006104;28;20193;-58
2022/04/13 04:17:26;;;;;;;4.67;3.10;;;;;;;;;;5006415;28;20698;-57
2022/04/13 04:19:52;;;;;;;8.70;3.23;;;;;;;;;;5005755;28;20257;-58
2022/04/13 04:22:18;;;;;;;6.47;3.03;;;;;;;;;;5002685;28;20193;-57
2022/04/13 04:24:44;;;;;;;6.37;3.03;;;;;;;;;;5004576;28;20197;-57
2022/04/13 04:27:10;;;;;;;6.27;3.07;;;;;;;;;;5023082;28;20189;-58
2022/04/13 04:29:36;;;;;;;6.37;3.03;;;;;;;;;;5004142;28;20646;-57
2022/04/13 04:32:03;;;;;;;7.60;3.27;;;;;;;;;;4997753;28;20185;-57
2022/04/13 04:34:29;;;;;;;5.97;3.10;;;;;;;;;;5002671;28;20201;-57
2022/04/13 04:36:55;;;;;;;7.40;3.10;;;;;;;;;;5004783;28;20315;-58
2022/04/13 04:39:21;;;;;;;6.77;3.13;;;;;;;;;;4999950;28;20437;-57
2022/04/13 04:41:47;;;;;;;10.53;3.43;;;;;;;;;;5000603;28;20204;-57
2022/04/13 04:44:13;;;;;;;6.50;3.07;;;;;;;;;;5003669;28;20189;-57
2022/04/13 04:46:39;;;;;;;9.70;3.50;;;;;;;;;;4996099;28;20189;-57
2022/04/13 04:49:05;;;;;;;7.77;3.07;;;;;;;;;;5005299;28;20201;-57
2022/04/13 04:51:31;;;;;;;6.93;3.20;;;;;;;;;;5003522;28;20779;-57
2022/04/13 04:53:57;;;;;;;5.37;3.10;;;;;;;;;;5001508;28;20200;-58
2022/04/13 04:56:23;;;;;;;5.20;3.20;;;;;;;;;;5002409;28;20204;-58
2022/04/13 04:58:49;;;;;;;6.80;3.50;;;;;;;;;;5005127;28;20213;-58
2022/04/13 05:01:15;;;;;;;10.07;3.40;;;;;;;;;;5007743;28;20203;-57
2022/04/13 05:03:43;;;;;;;6.30;3.10;;;;;;;;;;5009318;28;20213;-58
2022/04/13 05:06:09;;;;;;;7.03;3.10;;;;;;;;;;5001428;28;20216;-58
2022/04/13 05:08:35;;;;;;;6.50;3.23;;;;;;;;;;4998500;28;20193;-58
2022/04/13 05:11:02;;;;;;;6.77;3.50;;;;;;;;;;5004690;28;20201;-58
2022/04/13 05:13:29;;;;;;;7.50;3.20;;;;;;;;;;5000255;28;20784;-57
2022/04/13 05:15:55;;;;;;;8.73;3.60;;;;;;;;;;5006259;28;20204;-57
2022/04/13 05:18:21;;;;;;;6.63;3.30;;;;;;;;;;5006041;28;20201;-58
2022/04/13 05:20:47;;;;;;;5.30;3.20;;;;;;;;;;5001200;28;20723;-57
2022/04/13 05:23:13;;;;;;;7.13;3.00;;;;;;;;;;5001803;28;20698;-56
2022/04/13 05:25:39;;;;;;;8.23;3.00;;;;;;;;;;5003559;28;20198;-58
2022/04/13 05:28:05;;;;;;;7.83;4.13;;;;;;;;;;4993549;28;20200;-58
2022/04/13 05:30:31;;;;;;;7.10;3.00;;;;;;;;;;5004854;28;20237;-57
2022/04/13 05:32:58;;;;;;;4.80;3.33;;;;;;;;;;4999455;28;20193;-58
2022/04/13 05:35:25;;;;;;;7.77;3.40;;;;;;;;;;5002220;28;20660;-57
2022/04/13 05:37:51;;;;;;;7.97;3.63;;;;;;;;;;5003858;28;20219;-57
2022/04/13 05:40:17;;;;;;;6.87;2.90;;;;;;;;;;4998281;28;20193;-57
2022/04/13 05:42:43;;;;;;;8.23;3.60;;;;;;;;;;5004857;28;20279;-58
2022/04/13 05:45:09;;;;;;;6.23;3.27;;;;;;;;;;4998883;28;20193;-57
2022/04/13 05:47:35;;;;;;;6.57;3.33;;;;;;;;;;5004475;28;20301;-58
2022/04/13 05:50:02;;;;;;;6.97;3.47;;;;;;;;;;5000871;28;20740;-57
2022/04/13 05:52:28;;;;;;;8.13;3.30;;;;;;;;;;4992657;28;20208;-57
2022/04/13 05:54:54;;;;;;;7.03;3.63;;;;;;;;;;5000718;28;20192;-58
2022/04/13 05:57:20;;;;;;;5.67;3.33;;;;;;;;;;5003013;28;20753;-57
2022/04/13 05:59:46;;;;;;;7.90;3.73;;;;;;;;;;4997913;28;20193;-58
2022/04/13 06:02:12;;;;;;;9.40;3.10;;;;;;;;;;5005794;28;20189;-57
2022/04/13 06:04:38;;;;;;;5.73;3.53;;;;;;;;;;4994828;28;20193;-57
2022/04/13 06:07:04;;;;;;;6.30;3.20;;;;;;;;;;5003293;28;20871;-58
2022/04/13 06:09:30;;;;;;;5.67;3.20;;;;;;;;;;5003194;28;20185;-57
2022/04/13 06:11:56;;;;;;;7.17;3.73;;;;;;;;;;5000399;28;20208;-58
2022/04/13 06:14:22;;;;;;;7.27;3.50;;;;;;;;;;5005307;28;20194;-58
2022/04/13 06:16:48;;;;;;;5.13;4.10;;;;;;;;;;5004405;28;20192;-57
2022/04/13 06:19:14;;;;;;;6.33;3.70;;;;;;;;;;5002475;28;20373;-58
2022/04/13 06:21:40;;;;;;;10.20;4.20;;;;;;;;;;4991112;28;20247;-58
2022/04/13 06:24:06;;;;;;;6.37;3.83;;;;;;;;;;4999294;28;20697;-57
2022/04/13 06:26:32;;;;;;;10.93;4.20;;;;;;;;;;4995503;28;20185;-58
2022/04/13 06:28:58;;;;;;;16.70;4.50;;;;;;;;;;5001554;28;20247;-57
2022/04/13 06:31:24;;;;;;;7.93;4.10;;;;;;;;;;5006726;28;20572;-57
2022/04/13 06:33:52;;;;;;;9.40;4.30;;;;;;;;;;5005511;28;20198;-58
2022/04/13 06:36:17;;;;;;;7.23;4.13;;;;;;;;;;5005641;28;20280;-57
2022/04/13 06:38:43;;;;;;;8.03;4.37;;;;;;;;;;5005731;28;20208;-58
2022/04/13 06:41:10;;;;;;;7.23;4.37;;;;;;;;;;5004741;28;20200;-58
2022/04/13 06:43:36;;;;;;;11.17;4.77;;;;;;;;;;5003829;28;20573;-57
2022/04/13 06:46:02;;;;;;;9.90;3.93;;;;;;;;;;5007515;28;20332;-58
2022/04/13 06:48:28;;;;;;;10.33;4.40;;;;;;;;;;5010082;28;20263;-58
2022/04/13 06:50:53;;;;;;;12.77;4.50;;;;;;;;;;5000335;28;20190;-57
2022/04/13 06:53:19;;;;;;;12.07;4.67;;;;;;;;;;5006306;28;20197;-58
2022/04/13 06:55:47;;;;;;;10.50;4.37;;;;;;;;;;4998579;28;20311;-58
2022/04/13 06:58:13;;;;;;;8.33;4.43;;;;;;;;;;5001360;28;20222;-57
2022/04/13 07:00:39;;;;;;;8.37;4.27;;;;;;;;;;4994915;28;20272;-58
2022/04/13 07:03:05;;;;;;;13.13;4.27;;;;;;;;;;5001950;28;20255;-58
2022/04/13 07:05:31;;;;;;;10.23;4.10;;;;;;;;;;4999021;28;20196;-58
2022/04/13 07:07:57;;;;;;;9.90;4.40;;;;;;;;;;5001757;28;20217;-58
2022/04/13 07:10:23;;;;;;;10.43;4.47;;;;;;;;;;5004250;28;20189;-57
2022/04/13 07:12:49;;;;;;;13.07;4.80;;;;;;;;;;5004826;28;20205;-58
2022/04/13 07:15:17;;;;;;;8.03;3.73;;;;;;;;;;5004538;28;20290;-57
2022/04/13 07:17:43;;;;;;;8.60;4.40;;;;;;;;;;5003405;28;20218;-58
2022/04/13 07:20:09;;;;;;;10.27;4.17;;;;;;;;;;4995717;28;20284;-57
2022/04/13 07:22:48;;;;;;;8.83;4.10;;;;;;;;;;5005492;28;20247;-59
2022/04/13 07:25:14;;;;;;;11.40;4.83;;;;;;;;;;5005435;28;20182;-57
2022/04/13 07:27:40;;;;;;;8.37;4.10;;;;;;;;;;5007985;28;20200;-58
2022/04/13 07:30:06;;;;;;;12.77;4.20;;;;;;;;;;5002506;28;20252;-58
2022/04/13 07:32:32;;;;;;;7.60;4.73;;;;;;;;;;4995858;28;20224;-58
2022/04/13 07:35:04;;;;;;;10.67;4.30;;;;;;;;;;4989840;28;20204;-57
2022/04/13 07:37:31;;;;;;;11.80;4.87;;;;;;;;;;4999175;28;20670;-58
2022/04/13 07:39:57;;;;;;;12.33;5.03;;;;;;;;;;5003044;28;20186;-58
2022/04/13 07:42:23;;;;;;;11.33;4.53;;;;;;;;;;5001684;28;20207;-57
2022/04/13 07:44:49;;;;;;;11.80;4.23;;;;;;;;;;4999931;28;20259;-57
2022/04/13 07:47:15;;;;;;;11.60;4.70;;;;;;;;;;4997766;28;20663;-58
2022/04/13 07:49:41;;;;;;;10.63;4.80;;;;;;;;;;5001410;28;20197;-58
2022/04/13 07:52:08;;;;;;;14.17;4.77;;;;;;;;;;5000417;28;20195;-58
2022/04/13 07:54:34;;;;;;;8.30;4.17;;;;;;;;;;5002016;28;20189;-58
2022/04/13 07:57:00;;;;;;;7.80;4.53;;;;;;;;;;5000734;28;20224;-59
2022/04/13 07:59:27;;;;;;;10.47;4.33;;;;;;;;;;5002454;28;20256;-58
2022/04/13 08:01:53;;;;;;;10.73;4.20;;;;;;;;;;5004918;28;20261;-57
2022/04/13 08:04:19;;;;;;;11.90;4.73;;;;;;;;;;4987693;28;20236;-58
2022/04/13 08:06:45;;;;;;;7.33;3.87;;;;;;;;;;4998435;28;20213;-58
2022/04/13 08:09:11;;;;;;;11.40;4.57;;;;;;;;;;5002375;28;20194;-58
2022/04/13 08:11:37;;;;;;;5.37;3.80;;;;;;;;;;5000117;28;20199;-59
2022/04/13 08:14:03;;;;;;;8.37;4.17;;;;;;;;;;5000704;28;20492;-59
2022/04/13 08:16:29;;;;;;;7.50;4.13;;;;;;;;;;5003661;28;20196;-58
2022/04/13 08:18:55;;;;;;;9.65;4.55;;;;;;;;;;4999573;28;20224;-58
2022/04/13 08:21:21;;;;;;;9.00;5.03;;;;;;;;;;5005521;28;20228;-58
2022/04/13 08:23:47;;;;;;;12.63;5.65;;;;;;;;;;5005358;28;20417;-58
2022/04/13 08:26:13;;;;;;;11.47;5.27;;;;;;;;;;5004690;28;20252;-59
2022/04/13 08:28:39;;;;;;;8.33;4.60;;;;;;;;;;5002820;28;20824;-58
2022/04/13 08:31:05;;;;;;;10.25;4.93;;;;;;;;;;5000318;28;20292;-57
2022/04/13 08:33:31;;;;;;;12.25;5.50;;;;;;;;;;4995220;28;20196;-57
2022/04/13 08:35:57;;;;;;;12.07;5.50;;;;;;;;;;5002390;28;20315;-58
2022/04/13 08:38:23;;;;;;;9.77;5.25;;;;;;;;;;5005213;28;20546;-58
2022/04/13 08:40:57;;;;;;;13.27;5.65;;;;;;;;;;5005037;28;20290;-58
2022/04/13 08:43:26;;;;;;;8.95;4.93;;;;;;;;;;5008437;28;20697;-58
2022/04/13 08:45:56;;;;;;;11.55;4.63;;;;;;;;;;5009269;28;20185;-57
2022/04/13 08:48:23;;;;;;;5.75;3.92;;;;;;;;;;5008278;28;20316;-58
2022/04/13 08:50:50;;;;;;;6.65;3.50;;;;;;;;;;5007986;28;20259;-58
2022/04/13 08:53:16;;;;;;;11.13;5.00;;;;;;;;;;5006390;28;20600;-58
2022/04/13 08:55:47;;;;;;;8.52;4.20;;;;;;;;;;5002030;28;20234;-58
2022/04/13 08:58:25;;;;;;;6.68;4.25;;;;;;;;;;5012357;28;20217;-57
2022/04/13 09:00:52;;;;;;;6.35;4.18;;;;;;;;;;5010241;28;20239;-57
2022/04/13 09:03:23;;;;;;;7.65;4.40;;;;;;;;;;5008273;28;20194;-57
2022/04/13 09:05:50;;;;;;;7.95;4.55;;;;;;;;;;5005324;28;20288;-58
2022/04/13 09:08:36;;;;;;;10.25;4.60;;;;;;;;;;5022357;28;20216;-58
2022/04/13 09:11:04;;;;;;;6.85;4.00;;;;;;;;;;5013144;28;20358;-58
2022/04/13 09:13:30;;;;;;;6.85;3.45;;;;;;;;;;5006100;28;20212;-58
2022/04/13 09:15:56;;;;;;;9.77;4.28;;;;;;;;;;5009223;28;20730;-57
2022/04/13 09:18:22;;;;;;;5.05;3.55;;;;;;;;;;5011960;28;20249;-58
2022/04/13 09:20:48;;;;;;;9.63;4.00;;;;;;;;;;5013717;28;20609;-57
2022/04/13 09:23:14;;;;;;;4.88;4.07;;;;;;;;;;5009416;28;20193;-58
2022/04/13 09:25:41;;;;;;;8.57;4.00;;;;;;;;;;5011745;28;20209;-58
2022/04/13 09:28:07;;;;;;;6.38;3.70;;;;;;;;;;5009558;28;20762;-58
2022/04/13 09:30:33;;;;;;;9.38;4.43;;;;;;;;;;5009870;28;20247;-58
2022/04/13 09:32:59;;;;;;;8.38;4.82;;;;;;;;;;5006897;28;20181;-58
2022/04/13 09:35:25;;;;;;;13.85;7.43;;;;;;;;;;5005759;28;20276;-58
2022/04/13 09:37:51;;;;;;;12.23;6.85;;;;;;;;;;4991239;28;20663;-61
2022/04/13 09:40:36;;;;;;;11.55;5.55;;;;;;;;;;4993169;28;20188;-61
2022/04/13 09:43:06;;;;;;;7.18;3.88;;;;;;;;;;5003332;28;20189;-60
2022/04/13 09:45:50;;;;;;;9.82;6.07;;;;;;;;;;4999273;28;20185;-61
2022/04/13 09:48:17;;;;;;;10.93;5.25;;;;;;;;;;4999957;28;20216;-60
2022/04/13 09:50:44;;;;;;;8.70;5.60;;;;;;;;;;4998366;28;20199;-61
2022/04/13 09:53:11;;;;;;;8.20;5.25;;;;;;;;;;5007279;28;20193;-61
2022/04/13 09:55:38;;;;;;;14.50;5.80;;;;;;;;;;5003294;28;20197;-61
2022/04/13 09:58:13;;;;;;;6.82;4.68;;;;;;;;;;5003130;28;20221;-60
2022/04/13 10:00:40;;;;;;;11.82;5.30;;;;;;;;;;4993671;28;20741;-60
2022/04/13 10:03:07;;;;;;;14.95;6.05;;;;;;;;;;5003171;28;20189;-60
2022/04/13 10:05:33;;;;;;;6.72;4.50;;;;;;;;;;5002706;28;20277;-61
2022/04/13 10:08:06;;;;;;;10.52;5.13;;;;;;;;;;4993290;28;20209;-60
2022/04/13 10:10:32;;;;;;;7.13;3.85;;;;;;;;;;4995646;28;20318;-60
2022/04/13 10:12:58;;;;;;;10.05;5.63;;;;;;;;;;4995260;28;20280;-61
2022/04/13 10:15:24;;;;;;;9.82;4.68;;;;;;;;;;4997638;28;20542;-60
2022/04/13 10:17:50;;;;;;;11.07;4.57;;;;;;;;;;4998976;28;20263;-61
2022/04/13 10:20:16;;;;;;;6.88;3.90;;;;;;;;;;4997268;28;20189;-61
2022/04/13 10:22:58;;;;;;;8.25;4.15;;;;;;;;;;5002309;28;20220;-61
2022/04/13 10:25:27;;;;;;;7.43;4.13;;;;;;;;;;5004950;28;20188;-59
2022/04/13 10:27:56;;;;;;;11.55;4.25;;;;;;;;;;5004982;28;20292;-61
2022/04/13 10:30:26;;;;;;;10.30;4.80;;;;;;;;;;5002469;28;20852;-59
2022/04/13 10:33:05;;;;;;;9.60;3.28;;;;;;;;;;5003239;28;20209;-58
2022/04/13 10:35:31;;;;;;;8.25;3.58;;;;;;;;;;5006954;28;20209;-60
2022/04/13 10:37:58;;;;;;;7.50;3.50;;;;;;;;;;5002052;28;20579;-59
2022/04/13 10:40:27;;;;;;;10.52;5.43;;;;;;;;;;5001811;28;20196;-58
2022/04/13 10:42:54;;;;;;;13.90;6.75;;;;;;;;;;5012068;28;20678;-56
2022/04/13 10:45:20;;;;;;;13.02;7.07;;;;;;;;;;5004524;28;20702;-58
2022/04/13 10:47:59;;;;;;;15.90;7.65;;;;;;;;;;5006414;28;20190;-58
2022/04/13 10:50:31;;;;;;;12.32;5.97;;;;;;;;;;4996472;28;20216;-58
2022/04/13 10:52:58;;;;;;;14.95;7.72;;;;;;;;;;5004877;28;20208;-58
2022/04/13 10:55:27;;;;;;;13.75;7.03;;;;;;;;;;4999257;28;20190;-57
2022/04/13 10:57:54;;;;;;;13.15;7.72;;;;;;;;;;5002133;28;20209;-58
2022/04/13 11:00:20;;;;;;;15.57;7.90;;;;;;;;;;5001052;28;20268;-58
2022/04/13 11:02:47;;;;;;;14.68;8.43;;;;;;;;;;4989927;28;20199;-58
2022/04/13 11:05:13;;;;;;;14.88;8.68;;;;;;;;;;5000527;28;20224;-58
2022/04/13 11:07:39;;;;;;;10.75;8.35;;;;;;;;;;5003855;28;20766;-58
2022/04/13 11:10:06;;;;;;;17.00;8.88;;;;;;;;;;5002519;28;20216;-58
2022/04/13 11:12:32;;;;;;;18.02;8.32;;;;;;;;;;5006751;28;20246;-58
2022/04/13 11:14:59;;;;;;;17.25;7.70;;;;;;;;;;5016550;28;20189;-58
2022/04/13 11:17:26;;;;;;;12.68;7.15;;;;;;;;;;4997490;28;20197;-58
2022/04/13 11:19:52;;;;;;;15.35;6.63;;;;;;;;;;5003144;28;20682;-58
2022/04/13 11:22:19;;;;;;;11.23;6.30;;;;;;;;;;5003332;28;20516;-58
2022/04/13 11:24:49;;;;;;;11.13;7.28;;;;;;;;;;5001448;28;20196;-57
2022/04/13 11:27:16;;;;;;;16.23;7.43;;;;;;;;;;5004648;28;20498;-57
2022/04/13 11:29:42;;;;;;;10.20;6.50;;;;;;;;;;5007358;28;20303;-58
2022/04/13 11:32:10;;;;;;;12.23;6.93;;;;;;;;;;5006133;28;20205;-58
2022/04/13 11:34:37;;;;;;;9.82;6.32;;;;;;;;;;5003470;28;20243;-58
2022/04/13 11:37:03;;;;;;;18.95;6.55;;;;;;;;;;5003423;28;20276;-58
2022/04/13 11:39:48;;;;;;;12.13;6.65;;;;;;;;;;5004893;28;20216;-58
2022/04/13 11:42:15;;;;;;;10.10;6.78;;;;;;;;;;5004435;28;20236;-58
2022/04/13 11:44:51;;;;;;;15.90;6.60;;;;;;;;;;5007206;28;20204;-58
2022/04/13 11:47:17;;;;;;;7.07;5.80;;;;;;;;;;5009930;28;20589;-58
2022/04/13 11:50:12;;;;;;;9.32;6.03;;;;;;;;;;5011099;28;20193;-57
2022/04/13 11:52:42;;;;;;;17.00;6.53;;;;;;;;;;5013706;28;20274;-58
2022/04/13 11:55:18;;;;;;;11.23;6.28;;;;;;;;;;5010641;28;20186;-58
2022/04/13 11:58:02;;;;;;;13.57;5.40;;;;;;;;;;5015601;28;20208;-58
2022/04/13 12:00:50;;;;;;;8.45;5.70;;;;;;;;;;5007368;28;20251;-57
2022/04/13 12:03:16;;;;;;;7.90;5.97;;;;;;;;;;5003465;28;20269;-58
2022/04/13 12:05:43;;;;;;;13.60;6.35;;;;;;;;;;5008570;28;20194;-58
2022/04/13 12:08:19;;;;;;;9.68;5.30;;;;;;;;;;5008017;28;20695;-58
2022/04/13 12:10:49;;;;;;;12.98;5.75;;;;;;;;;;5015449;28;20246;-58
2022/04/13 12:13:15;;;;;;;10.95;5.75;;;;;;;;;;5014606;28;20414;-58
2022/04/13 12:15:42;;;;;;;7.28;4.78;;;;;;;;;;5012768;28;20658;-58
2022/04/13 12:18:10;;;;;;;8.20;5.18;;;;;;;;;;4985013;28;20572;-58
2022/04/13 12:20:36;;;;;;;7.55;4.60;;;;;;;;;;5006229;28;20190;-58
2022/04/13 12:23:18;;;;;;;10.13;4.80;;;;;;;;;;4995579;28;20219;-58
2022/04/13 12:25:44;;;;;;;9.18;5.40;;;;;;;;;;5004857;28;20589;-58
2022/04/13 12:28:10;;;;;;;7.55;5.22;;;;;;;;;;5003883;28;20196;-58
2022/04/13 12:30:36;;;;;;;10.07;5.80;;;;;;;;;;4987599;28;20656;-59
2022/04/13 12:33:12;;;;;;;10.32;5.20;;;;;;;;;;4981385;28;20618;-58
2022/04/13 12:35:48;;;;;;;7.43;5.15;;;;;;;;;;4981892;28;20845;-58
2022/04/13 12:38:40;;;;;;;9.38;5.10;;;;;;;;;;4988456;28;20219;-58
2022/04/13 12:41:10;;;;;;;10.43;5.30;;;;;;;;;;4998651;28;21691;-58
2022/04/13 12:43:37;;;;;;;7.80;4.47;;;;;;;;;;4989870;28;20758;-58
2022/04/13 12:46:16;;;;;;;10.70;4.38;;;;;;;;;;5002468;28;21867;-58
2022/04/13 12:48:43;;;;;;;10.00;4.95;;;;;;;;;;4998823;28;20189;-59
2022/04/13 12:51:10;;;;;;;10.95;5.05;;;;;;;;;;4997054;28;20761;-59
2022/04/13 12:53:54;;;;;;;14.07;4.82;;;;;;;;;;4998370;28;20235;-58
2022/04/13 12:56:22;;;;;;;11.82;5.40;;;;;;;;;;4998689;28;20217;-58
2022/04/13 12:58:48;;;;;;;12.32;4.60;;;;;;;;;;5000077;28;20205;-58
2022/04/13 13:01:33;;;;;;;6.32;4.28;;;;;;;;;;5000031;28;20190;-58
2022/04/13 13:04:00;;;;;;;7.95;4.15;;;;;;;;;;5000047;28;20172;-58
2022/04/13 13:06:29;;;;;;;7.95;4.20;;;;;;;;;;5000769;28;20209;-57
2022/04/13 13:08:59;;;;;;;6.13;3.90;;;;;;;;;;4995642;28;20205;-58
2022/04/13 13:11:28;;;;;;;9.02;3.90;;;;;;;;;;4988914;28;20205;-58
2022/04/13 13:14:06;;;;;;;7.65;4.05;;;;;;;;;;4994151;28;20197;-58
2022/04/13 13:16:34;;;;;;;7.15;3.88;;;;;;;;;;4994293;28;20914;-58
2022/04/13 13:19:29;;;;;;;6.85;3.70;;;;;;;;;;5000254;28;20260;-58
2022/04/13 13:22:14;;;;;;;7.95;3.92;;;;;;;;;;4993938;28;20680;-58
2022/04/13 13:24:43;;;;;;;11.68;4.38;;;;;;;;;;4989346;28;20202;-58
2022/04/13 13:27:09;;;;;;;6.63;4.13;;;;;;;;;;4991476;28;20184;-58
2022/04/13 13:29:42;;;;;;;9.00;4.50;;;;;;;;;;5004302;28;20327;-57
2022/04/13 13:32:11;;;;;;;9.02;4.35;;;;;;;;;;4995007;28;20201;-58
2022/04/13 13:34:37;;;;;;;9.15;4.80;;;;;;;;;;4992553;28;20181;-57
2022/04/13 13:37:03;;;;;;;7.18;4.47;;;;;;;;;;4989157;28;20642;-58
2022/04/13 13:39:29;;;;;;;10.05;4.95;;;;;;;;;;4992653;28;20354;-58
2022/04/13 13:42:05;;;;;;;9.00;4.50;;;;;;;;;;4993113;28;20193;-58
2022/04/13 13:44:31;;;;;;;8.23;4.78;;;;;;;;;;4993354;28;20216;-57
2022/04/13 13:46:59;;;;;;;8.30;5.32;;;;;;;;;;4986765;28;20197;-57
2022/04/13 13:49:25;;;;;;;8.07;4.88;;;;;;;;;;4992866;28;20206;-57
2022/04/13 13:51:51;;;;;;;12.02;5.22;;;;;;;;;;5001417;28;20824;-58
2022/04/13 13:54:18;;;;;;;10.43;4.78;;;;;;;;;;5003673;28;20578;-57
2022/04/13 13:56:44;;;;;;;9.70;4.85;;;;;;;;;;4989584;28;20192;-58
2022/04/13 13:59:10;;;;;;;8.80;4.68;;;;;;;;;;4994097;28;20706;-57
2022/04/13 14:01:36;;;;;;;10.35;5.05;;;;;;;;;;4994193;28;20186;-58
2022/04/13 14:04:01;;;;;;;6.25;4.43;;;;;;;;;;4999080;28;20200;-57
2022/04/13 14:06:27;;;;;;;9.38;5.22;;;;;;;;;;5001049;28;20713;-57
2022/04/13 14:08:53;;;;;;;6.32;5.05;;;;;;;;;;4993872;28;21474;-57
2022/04/13 14:11:19;;;;;;;6.80;4.70;;;;;;;;;;5001308;28;20192;-58
2022/04/13 14:13:45;;;;;;;7.43;5.47;;;;;;;;;;5004813;28;20201;-57
2022/04/13 14:16:12;;;;;;;8.30;5.63;;;;;;;;;;4992995;28;20212;-58
2022/04/13 14:18:39;;;;;;;10.20;5.80;;;;;;;;;;4979240;28;20205;-58
2022/04/13 14:21:05;;;;;;;8.10;6.30;;;;;;;;;;4991848;28;20604;-58
2022/04/13 14:23:31;;;;;;;9.73;6.80;;;;;;;;;;4986493;28;20208;-58
2022/04/13 14:25:57;;;;;;;9.23;6.13;;;;;;;;;;4990073;28;20197;-58
2022/04/13 14:28:23;;;;;;;12.65;6.53;;;;;;;;;;4971450;28;20278;-58
2022/04/13 14:30:49;;;;;;;9.05;6.70;;;;;;;;;;4985134;28;20239;-58
2022/04/13 14:33:15;;;;;;;8.23;6.30;;;;;;;;;;4977528;28;20225;-58
2022/04/13 14:35:41;;;;;;;11.07;6.53;;;;;;;;;;4987091;28;20193;-58
2022/04/13 14:38:07;;;;;;;8.67;5.87;;;;;;;;;;4985972;28;21537;-58
2022/04/13 14:40:32;;;;;;;7.65;5.03;;;;;;;;;;4992651;28;21855;-58